sensor_id;sensor_type;location;lat;lon;timestamp;pressure;altitude;pressure_sealevel;temperature;humidity
36788;BME280;22738;45.560;9.434;2023-04-30T00:05:30;99748.47;;;18.02;100.00
36788;BME280;22738;45.560;9.434;2023-04-30T00:12:12;99741.22;;;17.96;100.00
36788;BME280;22738;45.560;9.434;2023-04-30T00:18:53;99747.13;;;17.98;100.00
36788;BME280;22738;45.560;9.434;2023-04-30T00:25:34;99732.00;;;17.92;100.00
36788;BME280;22738;45.560;9.434;2023-04-30T00:32:15;99725.03;;;18.01;100.00
36788;BME280;22738;45.560;9.434;2023-04-30T00:38:56;99719.44;;;17.86;100.00
36788;BME280;22738;45.560;9.434;2023-04-30T00:45:37;99722.66;;;17.80;100.00
36788;BME280;22738;45.560;9.434;2023-04-30T00:52:18;99713.34;;;17.68;100.00
36788;BME280;22738;45.560;9.434;2023-04-30T00:58:59;99715.56;;;17.63;100.00
36788;BME280;22738;45.560;9.434;2023-04-30T01:05:41;99714.19;;;17.59;100.00
36788;BME280;22738;45.560;9.434;2023-04-30T01:12:54;99703.72;;;17.59;100.00
36788;BME280;22738;45.560;9.434;2023-04-30T01:19:43;99704.31;;;17.53;100.00
36788;BME280;22738;45.560;9.434;2023-04-30T01:33:26;99724.59;;;17.51;100.00
36788;BME280;22738;45.560;9.434;2023-04-30T01:40:44;99713.13;;;17.52;100.00
36788;BME280;22738;45.560;9.434;2023-04-30T01:47:43;99726.34;;;17.50;100.00
36788;BME280;22738;45.560;9.434;2023-04-30T01:54:30;99726.78;;;17.46;100.00
36788;BME280;22738;45.560;9.434;2023-04-30T02:01:29;99729.13;;;17.49;100.00
36788;BME280;22738;45.560;9.434;2023-04-30T02:08:11;99723.91;;;17.39;100.00
36788;BME280;22738;45.560;9.434;2023-04-30T02:14:52;99723.38;;;17.36;100.00
36788;BME280;22738;45.560;9.434;2023-04-30T02:21:34;99723.09;;;17.39;100.00
36788;BME280;22738;45.560;9.434;2023-04-30T02:28:15;99722.81;;;17.42;100.00
36788;BME280;22738;45.560;9.434;2023-04-30T02:34:56;99725.81;;;17.47;100.00
36788;BME280;22738;45.560;9.434;2023-04-30T02:41:37;99722.50;;;17.45;100.00
36788;BME280;22738;45.560;9.434;2023-04-30T02:48:18;99731.63;;;17.41;100.00
36788;BME280;22738;45.560;9.434;2023-04-30T02:55:00;99735.22;;;17.40;100.00
36788;BME280;22738;45.560;9.434;2023-04-30T03:01:41;99733.56;;;17.39;100.00
36788;BME280;22738;45.560;9.434;2023-04-30T03:08:22;99731.03;;;17.47;100.00
36788;BME280;22738;45.560;9.434;2023-04-30T03:15:03;99725.31;;;17.34;100.00
36788;BME280;22738;45.560;9.434;2023-04-30T03:21:44;99724.53;;;17.24;100.00
36788;BME280;22738;45.560;9.434;2023-04-30T03:28:26;99733.34;;;17.23;100.00
36788;BME280;22738;45.560;9.434;2023-04-30T03:35:07;99722.19;;;17.21;100.00
36788;BME280;22738;45.560;9.434;2023-04-30T03:41:48;99731.53;;;17.33;100.00
36788;BME280;22738;45.560;9.434;2023-04-30T03:48:29;99722.09;;;17.13;100.00
36788;BME280;22738;45.560;9.434;2023-04-30T03:55:11;99728.84;;;17.05;100.00
36788;BME280;22738;45.560;9.434;2023-04-30T04:01:53;99721.00;;;17.05;100.00
36788;BME280;22738;45.560;9.434;2023-04-30T04:08:34;99737.41;;;16.98;100.00
36788;BME280;22738;45.560;9.434;2023-04-30T04:15:15;99746.50;;;17.03;100.00
36788;BME280;22738;45.560;9.434;2023-04-30T04:21:57;99741.94;;;17.05;100.00
36788;BME280;22738;45.560;9.434;2023-04-30T04:28:38;99742.72;;;17.16;100.00
36788;BME280;22738;45.560;9.434;2023-04-30T04:35:20;99754.38;;;16.94;100.00
36788;BME280;22738;45.560;9.434;2023-04-30T04:42:02;99755.72;;;16.88;100.00
36788;BME280;22738;45.560;9.434;2023-04-30T04:48:43;99762.91;;;16.86;100.00
36788;BME280;22738;45.560;9.434;2023-04-30T04:55:24;99770.19;;;16.92;100.00
36788;BME280;22738;45.560;9.434;2023-04-30T05:02:06;99787.97;;;16.79;100.00
36788;BME280;22738;45.560;9.434;2023-04-30T05:08:47;99785.22;;;16.90;100.00
36788;BME280;22738;45.560;9.434;2023-04-30T05:15:28;99797.50;;;16.80;100.00
36788;BME280;22738;45.560;9.434;2023-04-30T05:22:09;99803.41;;;16.63;100.00
36788;BME280;22738;45.560;9.434;2023-04-30T05:28:50;99799.28;;;16.70;100.00
36788;BME280;22738;45.560;9.434;2023-04-30T05:35:32;99810.59;;;16.80;100.00
36788;BME280;22738;45.560;9.434;2023-04-30T05:42:15;99807.81;;;16.53;100.00
36788;BME280;22738;45.560;9.434;2023-04-30T05:48:56;99810.72;;;16.69;100.00
36788;BME280;22738;45.560;9.434;2023-04-30T05:55:37;99816.22;;;16.66;100.00
36788;BME280;22738;45.560;9.434;2023-04-30T06:02:18;99819.97;;;16.73;100.00
36788;BME280;22738;45.560;9.434;2023-04-30T06:08:59;99808.50;;;16.74;100.00
36788;BME280;22738;45.560;9.434;2023-04-30T06:15:40;99815.41;;;16.94;100.00
36788;BME280;22738;45.560;9.434;2023-04-30T06:22:21;99816.38;;;17.13;100.00
36788;BME280;22738;45.560;9.434;2023-04-30T06:29:02;99807.06;;;17.93;100.00
36788;BME280;22738;45.560;9.434;2023-04-30T06:35:45;99795.00;;;19.59;100.00
36788;BME280;22738;45.560;9.434;2023-04-30T06:42:26;99799.88;;;20.71;100.00
36788;BME280;22738;45.560;9.434;2023-04-30T06:49:07;99805.56;;;22.80;100.00
36788;BME280;22738;45.560;9.434;2023-04-30T06:55:48;99804.34;;;21.19;100.00
36788;BME280;22738;45.560;9.434;2023-04-30T07:02:30;99796.75;;;20.18;100.00
36788;BME280;22738;45.560;9.434;2023-04-30T07:09:11;99799.03;;;19.71;100.00
36788;BME280;22738;45.560;9.434;2023-04-30T07:15:54;99805.16;;;19.54;100.00
36788;BME280;22738;45.560;9.434;2023-04-30T07:22:36;99814.63;;;19.72;100.00
36788;BME280;22738;45.560;9.434;2023-04-30T07:29:17;99815.59;;;19.20;100.00
36788;BME280;22738;45.560;9.434;2023-04-30T07:35:58;99810.75;;;19.84;100.00
36788;BME280;22738;45.560;9.434;2023-04-30T07:42:39;99827.28;;;19.43;100.00
36788;BME280;22738;45.560;9.434;2023-04-30T07:49:22;99826.09;;;20.23;100.00
36788;BME280;22738;45.560;9.434;2023-04-30T07:56:03;99820.25;;;20.61;100.00
36788;BME280;22738;45.560;9.434;2023-04-30T08:02:44;99826.13;;;22.00;100.00
36788;BME280;22738;45.560;9.434;2023-04-30T08:09:26;99829.88;;;22.44;100.00
36788;BME280;22738;45.560;9.434;2023-04-30T08:16:07;99818.91;;;22.63;100.00
36788;BME280;22738;45.560;9.434;2023-04-30T08:22:48;99824.94;;;22.41;100.00
36788;BME280;22738;45.560;9.434;2023-04-30T08:29:30;99825.25;;;22.46;100.00
36788;BME280;22738;45.560;9.434;2023-04-30T08:36:11;99825.22;;;23.22;100.00
36788;BME280;22738;45.560;9.434;2023-04-30T08:43:06;99827.03;;;22.85;100.00
36788;BME280;22738;45.560;9.434;2023-04-30T08:49:48;99830.56;;;21.99;100.00
36788;BME280;22738;45.560;9.434;2023-04-30T08:56:29;99824.59;;;22.44;100.00
36788;BME280;22738;45.560;9.434;2023-04-30T09:03:11;99836.53;;;22.94;100.00
36788;BME280;22738;45.560;9.434;2023-04-30T09:09:52;99820.63;;;23.39;100.00
36788;BME280;22738;45.560;9.434;2023-04-30T09:16:49;99817.25;;;23.08;100.00
36788;BME280;22738;45.560;9.434;2023-04-30T09:23:32;99817.50;;;22.76;100.00
36788;BME280;22738;45.560;9.434;2023-04-30T09:30:29;99823.94;;;22.42;100.00
36788;BME280;22738;45.560;9.434;2023-04-30T09:37:12;99822.69;;;22.69;100.00
36788;BME280;22738;45.560;9.434;2023-04-30T09:43:55;99813.91;;;22.91;100.00
36788;BME280;22738;45.560;9.434;2023-04-30T09:50:37;99821.13;;;22.75;100.00
36788;BME280;22738;45.560;9.434;2023-04-30T09:57:22;99816.94;;;22.27;100.00
36788;BME280;22738;45.560;9.434;2023-04-30T10:04:04;99819.38;;;22.90;100.00
36788;BME280;22738;45.560;9.434;2023-04-30T10:10:53;99817.97;;;22.79;100.00
36788;BME280;22738;45.560;9.434;2023-04-30T10:17:37;99802.69;;;22.05;100.00
36788;BME280;22738;45.560;9.434;2023-04-30T10:24:24;99792.81;;;22.30;100.00
36788;BME280;22738;45.560;9.434;2023-04-30T10:31:06;99801.38;;;22.01;100.00
36788;BME280;22738;45.560;9.434;2023-04-30T10:44:57;99782.91;;;22.85;100.00
36788;BME280;22738;45.560;9.434;2023-04-30T10:51:48;99782.34;;;23.27;100.00
36788;BME280;22738;45.560;9.434;2023-04-30T10:58:36;99775.22;;;23.13;100.00
36788;BME280;22738;45.560;9.434;2023-04-30T11:05:18;99768.00;;;23.59;100.00
36788;BME280;22738;45.560;9.434;2023-04-30T11:12:04;99748.47;;;22.93;100.00
36788;BME280;22738;45.560;9.434;2023-04-30T11:18:50;99750.41;;;22.77;100.00
36788;BME280;22738;45.560;9.434;2023-04-30T11:25:47;99736.63;;;23.04;100.00
36788;BME280;22738;45.560;9.434;2023-04-30T11:32:33;99739.44;;;23.69;100.00
36788;BME280;22738;45.560;9.434;2023-04-30T11:39:15;99736.50;;;23.49;100.00
36788;BME280;22738;45.560;9.434;2023-04-30T11:52:48;99733.91;;;23.12;100.00
36788;BME280;22738;45.560;9.434;2023-04-30T11:59:30;99733.47;;;22.86;100.00
36788;BME280;22738;45.560;9.434;2023-04-30T12:06:20;99721.75;;;22.65;100.00
36788;BME280;22738;45.560;9.434;2023-04-30T12:13:02;99716.56;;;22.49;100.00
36788;BME280;22738;45.560;9.434;2023-04-30T12:19:43;99714.22;;;22.09;100.00
36788;BME280;22738;45.560;9.434;2023-04-30T12:26:24;99717.06;;;22.30;100.00
36788;BME280;22738;45.560;9.434;2023-04-30T12:33:16;99717.28;;;22.21;100.00
36788;BME280;22738;45.560;9.434;2023-04-30T12:39:57;99702.28;;;22.13;100.00
36788;BME280;22738;45.560;9.434;2023-04-30T12:46:39;99707.00;;;22.48;100.00
36788;BME280;22738;45.560;9.434;2023-04-30T12:53:21;99704.28;;;22.64;100.00
36788;BME280;22738;45.560;9.434;2023-04-30T13:00:03;99698.03;;;22.80;100.00
36788;BME280;22738;45.560;9.434;2023-04-30T13:06:45;99698.28;;;23.52;100.00
36788;BME280;22738;45.560;9.434;2023-04-30T13:13:26;99684.59;;;23.19;100.00
36788;BME280;22738;45.560;9.434;2023-04-30T13:20:08;99681.56;;;23.22;100.00
36788;BME280;22738;45.560;9.434;2023-04-30T13:26:49;99675.09;;;23.10;100.00
36788;BME280;22738;45.560;9.434;2023-04-30T13:33:30;99671.63;;;23.09;100.00
36788;BME280;22738;45.560;9.434;2023-04-30T13:40:11;99668.31;;;23.22;100.00
36788;BME280;22738;45.560;9.434;2023-04-30T13:46:52;99664.13;;;22.84;100.00
36788;BME280;22738;45.560;9.434;2023-04-30T13:53:33;99656.47;;;22.89;100.00
36788;BME280;22738;45.560;9.434;2023-04-30T14:00:16;99660.97;;;23.03;100.00
36788;BME280;22738;45.560;9.434;2023-04-30T14:06:58;99651.84;;;23.05;100.00
36788;BME280;22738;45.560;9.434;2023-04-30T14:13:39;99651.66;;;23.36;100.00
36788;BME280;22738;45.560;9.434;2023-04-30T14:20:21;99658.84;;;23.13;100.00
36788;BME280;22738;45.560;9.434;2023-04-30T14:27:02;99658.00;;;22.68;100.00
36788;BME280;22738;45.560;9.434;2023-04-30T14:33:43;99655.06;;;22.63;100.00
36788;BME280;22738;45.560;9.434;2023-04-30T14:40:25;99651.53;;;22.48;100.00
36788;BME280;22738;45.560;9.434;2023-04-30T14:47:06;99654.09;;;22.56;100.00
36788;BME280;22738;45.560;9.434;2023-04-30T14:53:47;99651.78;;;22.16;100.00
36788;BME280;22738;45.560;9.434;2023-04-30T15:00:29;99649.16;;;22.16;100.00
36788;BME280;22738;45.560;9.434;2023-04-30T15:07:10;99643.16;;;22.22;100.00
36788;BME280;22738;45.560;9.434;2023-04-30T15:13:53;99645.09;;;22.28;99.35
36788;BME280;22738;45.560;9.434;2023-04-30T15:20:35;99649.56;;;22.28;98.22
36788;BME280;22738;45.560;9.434;2023-04-30T15:27:15;99644.03;;;22.37;96.32
36788;BME280;22738;45.560;9.434;2023-04-30T15:33:56;99652.41;;;22.41;97.60
36788;BME280;22738;45.560;9.434;2023-04-30T15:40:38;99653.66;;;22.08;100.00
36788;BME280;22738;45.560;9.434;2023-04-30T15:47:20;99652.88;;;21.99;100.00
36788;BME280;22738;45.560;9.434;2023-04-30T15:54:02;99668.75;;;21.13;100.00
36788;BME280;22738;45.560;9.434;2023-04-30T16:00:46;99663.56;;;20.33;100.00
36788;BME280;22738;45.560;9.434;2023-04-30T16:07:29;99652.78;;;19.94;100.00
36788;BME280;22738;45.560;9.434;2023-04-30T16:14:11;99665.38;;;19.66;100.00
36788;BME280;22738;45.560;9.434;2023-04-30T16:20:52;99667.47;;;19.63;100.00
36788;BME280;22738;45.560;9.434;2023-04-30T16:27:33;99667.66;;;19.61;100.00
36788;BME280;22738;45.560;9.434;2023-04-30T16:34:14;99671.06;;;19.54;100.00
36788;BME280;22738;45.560;9.434;2023-04-30T16:40:55;99672.19;;;19.51;100.00
36788;BME280;22738;45.560;9.434;2023-04-30T16:47:36;99667.28;;;19.48;100.00
36788;BME280;22738;45.560;9.434;2023-04-30T16:54:17;99666.44;;;19.48;100.00
36788;BME280;22738;45.560;9.434;2023-04-30T17:00:58;99667.94;;;19.50;100.00
36788;BME280;22738;45.560;9.434;2023-04-30T17:07:40;99673.84;;;19.44;100.00
36788;BME280;22738;45.560;9.434;2023-04-30T17:14:21;99669.78;;;19.32;100.00
36788;BME280;22738;45.560;9.434;2023-04-30T17:21:03;99671.72;;;19.22;100.00
36788;BME280;22738;45.560;9.434;2023-04-30T17:27:44;99684.19;;;19.20;100.00
36788;BME280;22738;45.560;9.434;2023-04-30T17:34:25;99678.53;;;19.07;100.00
36788;BME280;22738;45.560;9.434;2023-04-30T17:41:07;99678.03;;;19.03;100.00
36788;BME280;22738;45.560;9.434;2023-04-30T17:47:48;99678.97;;;18.94;100.00
36788;BME280;22738;45.560;9.434;2023-04-30T17:54:29;99678.22;;;18.84;100.00
36788;BME280;22738;45.560;9.434;2023-04-30T18:01:11;99682.44;;;18.77;100.00
36788;BME280;22738;45.560;9.434;2023-04-30T18:07:53;99692.34;;;18.66;100.00
36788;BME280;22738;45.560;9.434;2023-04-30T18:14:34;99690.94;;;18.53;100.00
36788;BME280;22738;45.560;9.434;2023-04-30T18:21:15;99690.06;;;18.45;100.00
36788;BME280;22738;45.560;9.434;2023-04-30T18:27:56;99698.50;;;18.39;100.00
36788;BME280;22738;45.560;9.434;2023-04-30T18:34:44;99714.47;;;18.28;100.00
36788;BME280;22738;45.560;9.434;2023-04-30T18:41:26;99707.75;;;18.25;100.00
36788;BME280;22738;45.560;9.434;2023-04-30T18:48:06;99711.63;;;18.21;100.00
36788;BME280;22738;45.560;9.434;2023-04-30T18:54:48;99708.47;;;18.00;100.00
36788;BME280;22738;45.560;9.434;2023-04-30T19:01:29;99718.47;;;17.87;100.00
36788;BME280;22738;45.560;9.434;2023-04-30T19:08:11;99721.31;;;17.76;100.00
36788;BME280;22738;45.560;9.434;2023-04-30T19:14:53;99732.94;;;17.64;100.00
36788;BME280;22738;45.560;9.434;2023-04-30T19:21:34;99733.81;;;17.55;100.00
36788;BME280;22738;45.560;9.434;2023-04-30T19:28:16;99741.41;;;17.48;100.00
36788;BME280;22738;45.560;9.434;2023-04-30T19:34:57;99744.19;;;17.37;100.00
36788;BME280;22738;45.560;9.434;2023-04-30T19:41:38;99748.47;;;17.29;100.00
36788;BME280;22738;45.560;9.434;2023-04-30T19:48:20;99750.13;;;17.39;100.00
36788;BME280;22738;45.560;9.434;2023-04-30T19:55:01;99752.88;;;17.38;100.00
36788;BME280;22738;45.560;9.434;2023-04-30T20:01:43;99756.44;;;17.46;100.00
36788;BME280;22738;45.560;9.434;2023-04-30T20:08:26;99753.16;;;17.44;100.00
36788;BME280;22738;45.560;9.434;2023-04-30T20:15:08;99758.38;;;17.44;100.00
36788;BME280;22738;45.560;9.434;2023-04-30T20:21:49;99760.03;;;17.36;100.00
36788;BME280;22738;45.560;9.434;2023-04-30T20:28:30;99758.84;;;17.30;100.00
36788;BME280;22738;45.560;9.434;2023-04-30T20:35:11;99764.19;;;17.29;100.00
36788;BME280;22738;45.560;9.434;2023-04-30T20:41:52;99764.78;;;17.23;100.00
36788;BME280;22738;45.560;9.434;2023-04-30T20:48:34;99765.63;;;17.13;100.00
36788;BME280;22738;45.560;9.434;2023-04-30T20:55:15;99760.97;;;17.07;100.00
36788;BME280;22738;45.560;9.434;2023-04-30T21:01:57;99754.91;;;16.97;100.00
36788;BME280;22738;45.560;9.434;2023-04-30T21:08:38;99753.25;;;16.96;100.00
36788;BME280;22738;45.560;9.434;2023-04-30T21:15:19;99763.75;;;16.96;100.00
36788;BME280;22738;45.560;9.434;2023-04-30T21:22:00;99763.75;;;16.96;100.00
36788;BME280;22738;45.560;9.434;2023-04-30T21:28:41;99770.63;;;16.88;100.00
36788;BME280;22738;45.560;9.434;2023-04-30T21:35:23;99763.59;;;16.88;100.00
36788;BME280;22738;45.560;9.434;2023-04-30T21:42:04;99759.34;;;16.87;100.00
36788;BME280;22738;45.560;9.434;2023-04-30T21:48:46;99759.47;;;16.86;100.00
36788;BME280;22738;45.560;9.434;2023-04-30T21:55:28;99751.06;;;16.82;100.00
36788;BME280;22738;45.560;9.434;2023-04-30T22:02:09;99753.00;;;16.80;100.00
36788;BME280;22738;45.560;9.434;2023-04-30T22:08:50;99763.06;;;16.75;100.00
36788;BME280;22738;45.560;9.434;2023-04-30T22:15:31;99754.09;;;16.78;100.00
36788;BME280;22738;45.560;9.434;2023-04-30T22:22:14;99748.59;;;16.71;100.00
36788;BME280;22738;45.560;9.434;2023-04-30T22:28:55;99756.88;;;16.76;100.00
36788;BME280;22738;45.560;9.434;2023-04-30T22:35:36;99749.97;;;16.75;100.00
36788;BME280;22738;45.560;9.434;2023-04-30T22:42:19;99753.16;;;16.69;100.00
36788;BME280;22738;45.560;9.434;2023-04-30T22:49:00;99748.31;;;16.74;100.00
36788;BME280;22738;45.560;9.434;2023-04-30T22:55:41;99753.84;;;16.71;100.00
36788;BME280;22738;45.560;9.434;2023-04-30T23:02:23;99739.38;;;16.67;100.00
36788;BME280;22738;45.560;9.434;2023-04-30T23:09:05;99737.28;;;16.61;100.00
36788;BME280;22738;45.560;9.434;2023-04-30T23:15:47;99750.53;;;16.60;100.00
36788;BME280;22738;45.560;9.434;2023-04-30T23:22:28;99745.84;;;16.63;100.00
36788;BME280;22738;45.560;9.434;2023-04-30T23:29:09;99744.47;;;16.59;100.00
36788;BME280;22738;45.560;9.434;2023-04-30T23:35:51;99745.84;;;16.54;100.00
36788;BME280;22738;45.560;9.434;2023-04-30T23:42:32;99740.59;;;16.44;100.00
36788;BME280;22738;45.560;9.434;2023-04-30T23:49:14;99738.91;;;16.43;100.00
36788;BME280;22738;45.560;9.434;2023-04-30T23:55:57;99730.63;;;16.38;100.00
